sensor_id;sensor_type;location;lat;lon;timestamp;pressure;altitude;pressure_sealevel;temperature;humidity
17260;BME280;8746;49.230;9.220;2022-10-31T00:01:53;100482.44;;;9.32;100.00
17260;BME280;8746;49.230;9.220;2022-10-31T00:04:19;100487.78;;;9.28;100.00
17260;BME280;8746;49.230;9.220;2022-10-31T00:06:44;100483.28;;;9.32;100.00
17260;BME280;8746;49.230;9.220;2022-10-31T00:09:10;100480.03;;;9.24;100.00
17260;BME280;8746;49.230;9.220;2022-10-31T00:11:35;100475.72;;;9.21;100.00
17260;BME280;8746;49.230;9.220;2022-10-31T00:14:01;100473.19;;;9.17;100.00
17260;BME280;8746;49.230;9.220;2022-10-31T00:16:28;100469.72;;;9.14;100.00
17260;BME280;8746;49.230;9.220;2022-10-31T00:18:56;100475.00;;;9.14;100.00
17260;BME280;8746;49.230;9.220;2022-10-31T00:21:22;100470.28;;;9.26;100.00
17260;BME280;8746;49.230;9.220;2022-10-31T00:23:48;100472.13;;;9.24;100.00
17260;BME280;8746;49.230;9.220;2022-10-31T00:26:13;100468.72;;;9.20;100.00
17260;BME280;8746;49.230;9.220;2022-10-31T00:28:39;100467.72;;;9.24;100.00
17260;BME280;8746;49.230;9.220;2022-10-31T00:31:07;100461.78;;;9.16;100.00
17260;BME280;8746;49.230;9.220;2022-10-31T00:33:37;100466.16;;;9.17;100.00
17260;BME280;8746;49.230;9.220;2022-10-31T00:36:04;100472.97;;;9.24;100.00
17260;BME280;8746;49.230;9.220;2022-10-31T00:38:30;100474.78;;;9.22;100.00
17260;BME280;8746;49.230;9.220;2022-10-31T00:40:56;100470.50;;;9.18;100.00
17260;BME280;8746;49.230;9.220;2022-10-31T00:43:21;100472.25;;;9.19;100.00
17260;BME280;8746;49.230;9.220;2022-10-31T00:45:46;100475.84;;;9.15;100.00
17260;BME280;8746;49.230;9.220;2022-10-31T00:48:11;100467.13;;;9.13;100.00
17260;BME280;8746;49.230;9.220;2022-10-31T00:50:37;100472.19;;;9.21;100.00
17260;BME280;8746;49.230;9.220;2022-10-31T00:53:03;100479.34;;;9.16;100.00
17260;BME280;8746;49.230;9.220;2022-10-31T00:55:28;100476.84;;;9.11;100.00
17260;BME280;8746;49.230;9.220;2022-10-31T00:57:54;100478.50;;;9.13;100.00
17260;BME280;8746;49.230;9.220;2022-10-31T01:00:19;100482.03;;;9.12;100.00
17260;BME280;8746;49.230;9.220;2022-10-31T01:02:45;100479.25;;;9.20;100.00
17260;BME280;8746;49.230;9.220;2022-10-31T01:05:11;100476.56;;;9.22;100.00
17260;BME280;8746;49.230;9.220;2022-10-31T01:07:41;100477.50;;;9.19;100.00
17260;BME280;8746;49.230;9.220;2022-10-31T01:10:07;100463.50;;;9.17;100.00
17260;BME280;8746;49.230;9.220;2022-10-31T01:12:50;100473.13;;;9.18;100.00
17260;BME280;8746;49.230;9.220;2022-10-31T01:15:18;100471.34;;;9.19;100.00
17260;BME280;8746;49.230;9.220;2022-10-31T01:17:44;100474.19;;;9.11;100.00
17260;BME280;8746;49.230;9.220;2022-10-31T01:20:11;100463.03;;;9.01;100.00
17260;BME280;8746;49.230;9.220;2022-10-31T01:22:37;100465.78;;;8.98;100.00
17260;BME280;8746;49.230;9.220;2022-10-31T01:25:03;100467.47;;;9.01;100.00
17260;BME280;8746;49.230;9.220;2022-10-31T01:27:29;100465.56;;;9.06;100.00
17260;BME280;8746;49.230;9.220;2022-10-31T01:29:54;100477.09;;;9.02;100.00
17260;BME280;8746;49.230;9.220;2022-10-31T01:32:19;100470.97;;;9.00;100.00
17260;BME280;8746;49.230;9.220;2022-10-31T01:34:45;100471.84;;;9.00;100.00
17260;BME280;8746;49.230;9.220;2022-10-31T01:37:10;100471.84;;;9.00;100.00
17260;BME280;8746;49.230;9.220;2022-10-31T01:39:35;100470.03;;;9.02;100.00
17260;BME280;8746;49.230;9.220;2022-10-31T01:42:01;100480.56;;;9.02;100.00
17260;BME280;8746;49.230;9.220;2022-10-31T01:47:02;100470.88;;;9.04;100.00
17260;BME280;8746;49.230;9.220;2022-10-31T01:49:43;100463.94;;;9.00;100.00
17260;BME280;8746;49.230;9.220;2022-10-31T01:52:20;100466.56;;;9.02;100.00
17260;BME280;8746;49.230;9.220;2022-10-31T01:54:59;100469.19;;;9.02;100.00
17260;BME280;8746;49.230;9.220;2022-10-31T01:57:26;100469.31;;;8.97;100.00
17260;BME280;8746;49.230;9.220;2022-10-31T01:59:57;100465.78;;;8.98;100.00
17260;BME280;8746;49.230;9.220;2022-10-31T02:02:26;100469.19;;;9.00;100.00
17260;BME280;8746;49.230;9.220;2022-10-31T02:04:53;100467.41;;;9.02;100.00
17260;BME280;8746;49.230;9.220;2022-10-31T02:07:25;100470.25;;;8.94;100.00
17260;BME280;8746;49.230;9.220;2022-10-31T02:09:53;100476.28;;;8.98;100.00
17260;BME280;8746;49.230;9.220;2022-10-31T02:12:18;100465.63;;;9.03;100.00
17260;BME280;8746;49.230;9.220;2022-10-31T02:14:46;100470.78;;;9.07;100.00
17260;BME280;8746;49.230;9.220;2022-10-31T02:17:11;100470.88;;;9.04;100.00
17260;BME280;8746;49.230;9.220;2022-10-31T02:19:48;100471.66;;;9.08;100.00
17260;BME280;8746;49.230;9.220;2022-10-31T02:27:48;100468.25;;;9.04;100.00
17260;BME280;8746;49.230;9.220;2022-10-31T02:30:21;100466.41;;;9.06;100.00
17260;BME280;8746;49.230;9.220;2022-10-31T02:38:15;100473.78;;;8.93;100.00
17260;BME280;8746;49.230;9.220;2022-10-31T02:41:03;100475.63;;;8.90;100.00
17260;BME280;8746;49.230;9.220;2022-10-31T02:47:11;100479.44;;;8.76;100.00
17260;BME280;8746;49.230;9.220;2022-10-31T02:49:42;100470.03;;;8.66;100.00
17260;BME280;8746;49.230;9.220;2022-10-31T02:52:24;100470.81;;;8.71;100.00
17260;BME280;8746;49.230;9.220;2022-10-31T02:54:50;100470.88;;;8.68;100.00
17260;BME280;8746;49.230;9.220;2022-10-31T02:57:20;100475.28;;;8.66;100.00
17260;BME280;8746;49.230;9.220;2022-10-31T02:59:53;100478.72;;;8.70;100.00
17260;BME280;8746;49.230;9.220;2022-10-31T03:05:14;100466.34;;;8.73;100.00
17260;BME280;8746;49.230;9.220;2022-10-31T03:10:27;100465.25;;;8.84;100.00
17260;BME280;8746;49.230;9.220;2022-10-31T03:13:58;100467.00;;;8.83;100.00
17260;BME280;8746;49.230;9.220;2022-10-31T03:16:11;100465.25;;;8.84;100.00
17260;BME280;8746;49.230;9.220;2022-10-31T03:18:42;100464.56;;;8.75;100.00
17260;BME280;8746;49.230;9.220;2022-10-31T03:21:20;100459.19;;;8.80;100.00
17260;BME280;8746;49.230;9.220;2022-10-31T03:23:48;100465.41;;;8.77;100.00
17260;BME280;8746;49.230;9.220;2022-10-31T03:26:15;100467.13;;;8.78;100.00
17260;BME280;8746;49.230;9.220;2022-10-31T03:28:46;100465.41;;;8.77;100.00
17260;BME280;8746;49.230;9.220;2022-10-31T03:31:17;100472.44;;;8.75;100.00
17260;BME280;8746;49.230;9.220;2022-10-31T03:33:45;100471.63;;;8.73;100.00
17260;BME280;8746;49.230;9.220;2022-10-31T03:36:13;100466.59;;;8.64;100.00
17260;BME280;8746;49.230;9.220;2022-10-31T03:38:41;100472.75;;;8.63;100.00
17260;BME280;8746;49.230;9.220;2022-10-31T03:41:11;100474.47;;;8.64;100.00
17260;BME280;8746;49.230;9.220;2022-10-31T03:43:42;100469.28;;;8.61;100.00
17260;BME280;8746;49.230;9.220;2022-10-31T03:46:12;100474.63;;;8.56;100.00
17260;BME280;8746;49.230;9.220;2022-10-31T03:48:37;100471.84;;;8.64;100.00
17260;BME280;8746;49.230;9.220;2022-10-31T03:53:34;100481.63;;;8.59;100.00
17260;BME280;8746;49.230;9.220;2022-10-31T03:56:43;100470.38;;;8.52;100.00
17260;BME280;8746;49.230;9.220;2022-10-31T03:59:36;100466.09;;;8.46;100.00
17260;BME280;8746;49.230;9.220;2022-10-31T04:02:11;100474.94;;;8.42;100.00
17260;BME280;8746;49.230;9.220;2022-10-31T04:04:39;100470.56;;;8.41;100.00
17260;BME280;8746;49.230;9.220;2022-10-31T04:07:06;100473.28;;;8.38;100.00
17260;BME280;8746;49.230;9.220;2022-10-31T04:09:35;100472.44;;;8.36;100.00
17260;BME280;8746;49.230;9.220;2022-10-31T04:12:03;100468.94;;;8.37;100.00
17260;BME280;8746;49.230;9.220;2022-10-31T04:14:32;100469.97;;;8.30;100.00
17260;BME280;8746;49.230;9.220;2022-10-31T04:16:59;100464.88;;;8.22;100.00
17260;BME280;8746;49.230;9.220;2022-10-31T04:19:27;100465.78;;;8.21;100.00
17260;BME280;8746;49.230;9.220;2022-10-31T04:21:52;100459.72;;;8.17;100.00
17260;BME280;8746;49.230;9.220;2022-10-31T04:24:18;100462.31;;;8.19;100.00
17260;BME280;8746;49.230;9.220;2022-10-31T04:26:43;100456.13;;;8.22;100.00
17260;BME280;8746;49.230;9.220;2022-10-31T04:29:08;100453.41;;;8.26;100.00
17260;BME280;8746;49.230;9.220;2022-10-31T04:31:34;100453.66;;;8.14;100.00
17260;BME280;8746;49.230;9.220;2022-10-31T04:33:59;100457.06;;;8.19;100.00
17260;BME280;8746;49.230;9.220;2022-10-31T04:36:24;100457.19;;;8.13;100.00
17260;BME280;8746;49.230;9.220;2022-10-31T04:38:50;100458.88;;;8.15;100.00
17260;BME280;8746;49.230;9.220;2022-10-31T04:41:15;100452.78;;;8.13;100.00
17260;BME280;8746;49.230;9.220;2022-10-31T04:43:40;100455.50;;;8.10;100.00
17260;BME280;8746;49.230;9.220;2022-10-31T04:46:06;100455.53;;;8.09;100.00
17260;BME280;8746;49.230;9.220;2022-10-31T04:48:31;100452.00;;;8.10;100.00
17260;BME280;8746;49.230;9.220;2022-10-31T04:51:00;100456.34;;;8.11;100.00
17260;BME280;8746;49.230;9.220;2022-10-31T04:53:25;100451.84;;;8.17;100.00
17260;BME280;8746;49.230;9.220;2022-10-31T04:55:50;100457.16;;;8.14;100.00
17260;BME280;8746;49.230;9.220;2022-10-31T04:58:16;100451.97;;;8.11;100.00
17260;BME280;8746;49.230;9.220;2022-10-31T05:00:41;100445.22;;;7.99;100.00
17260;BME280;8746;49.230;9.220;2022-10-31T05:03:06;100446.19;;;7.94;100.00
17260;BME280;8746;49.230;9.220;2022-10-31T05:05:32;100450.66;;;7.92;100.00
17260;BME280;8746;49.230;9.220;2022-10-31T05:07:57;100442.84;;;7.87;100.00
17260;BME280;8746;49.230;9.220;2022-10-31T05:10:25;100444.59;;;7.86;100.00
17260;BME280;8746;49.230;9.220;2022-10-31T05:12:54;100441.91;;;7.90;100.00
17260;BME280;8746;49.230;9.220;2022-10-31T05:15:21;100433.19;;;7.88;100.00
17260;BME280;8746;49.230;9.220;2022-10-31T05:17:48;100428.75;;;7.91;100.00
17260;BME280;8746;49.230;9.220;2022-10-31T05:20:15;100433.00;;;7.97;100.00
17260;BME280;8746;49.230;9.220;2022-10-31T05:22:49;100433.25;;;7.86;100.00
17260;BME280;8746;49.230;9.220;2022-10-31T05:25:16;100428.84;;;7.86;100.00
17260;BME280;8746;49.230;9.220;2022-10-31T05:27:43;100416.75;;;7.79;100.00
17260;BME280;8746;49.230;9.220;2022-10-31T05:30:10;100419.41;;;7.78;100.00
17260;BME280;8746;49.230;9.220;2022-10-31T05:32:40;100426.22;;;7.86;100.00
17260;BME280;8746;49.230;9.220;2022-10-31T05:35:07;100416.69;;;7.82;100.00
17260;BME280;8746;49.230;9.220;2022-10-31T05:37:34;100419.34;;;7.81;100.00
17260;BME280;8746;49.230;9.220;2022-10-31T05:40:00;100420.38;;;7.74;100.00
17260;BME280;8746;49.230;9.220;2022-10-31T05:42:26;100415.97;;;7.76;100.00
17260;BME280;8746;49.230;9.220;2022-10-31T05:44:51;100412.66;;;7.66;100.00
17260;BME280;8746;49.230;9.220;2022-10-31T05:47:16;100415.34;;;7.63;100.00
17260;BME280;8746;49.230;9.220;2022-10-31T05:49:42;100410.94;;;7.63;100.00
17260;BME280;8746;49.230;9.220;2022-10-31T05:52:07;100412.78;;;7.60;100.00
17260;BME280;8746;49.230;9.220;2022-10-31T05:54:32;100413.69;;;7.59;100.00
17260;BME280;8746;49.230;9.220;2022-10-31T05:56:57;100410.09;;;7.63;100.00
17260;BME280;8746;49.230;9.220;2022-10-31T05:59:23;100418.94;;;7.59;100.00
17260;BME280;8746;49.230;9.220;2022-10-31T06:01:48;100417.19;;;7.58;100.00
17260;BME280;8746;49.230;9.220;2022-10-31T06:04:13;100423.38;;;7.53;100.00
17260;BME280;8746;49.230;9.220;2022-10-31T06:06:39;100425.13;;;7.56;100.00
17260;BME280;8746;49.230;9.220;2022-10-31T06:09:04;100427.81;;;7.51;100.00
17260;BME280;8746;49.230;9.220;2022-10-31T06:11:29;100426.97;;;7.49;100.00
17260;BME280;8746;49.230;9.220;2022-10-31T06:13:55;100424.31;;;7.52;100.00
17260;BME280;8746;49.230;9.220;2022-10-31T06:16:20;100426.00;;;7.53;100.00
17260;BME280;8746;49.230;9.220;2022-10-31T06:18:46;100434.78;;;7.54;100.00
17260;BME280;8746;49.230;9.220;2022-10-31T06:21:12;100432.09;;;7.56;100.00
17260;BME280;8746;49.230;9.220;2022-10-31T06:23:37;100427.50;;;7.67;100.00
17260;BME280;8746;49.230;9.220;2022-10-31T06:26:02;100432.66;;;7.72;100.00
17260;BME280;8746;49.230;9.220;2022-10-31T06:28:28;100427.50;;;7.67;100.00
17260;BME280;8746;49.230;9.220;2022-10-31T06:30:53;100436.97;;;7.76;100.00
17260;BME280;8746;49.230;9.220;2022-10-31T06:33:18;100433.53;;;7.70;100.00
17260;BME280;8746;49.230;9.220;2022-10-31T06:35:47;100432.66;;;7.72;100.00
17260;BME280;8746;49.230;9.220;2022-10-31T06:38:13;100436.16;;;7.72;100.00
17260;BME280;8746;49.230;9.220;2022-10-31T06:40:39;100444.03;;;7.72;100.00
17260;BME280;8746;49.230;9.220;2022-10-31T06:43:04;100443.06;;;7.76;100.00
17260;BME280;8746;49.230;9.220;2022-10-31T06:45:29;100437.78;;;7.79;100.00
17260;BME280;8746;49.230;9.220;2022-10-31T06:47:55;100433.19;;;7.88;100.00
17260;BME280;8746;49.230;9.220;2022-10-31T06:50:22;100441.28;;;7.78;100.00
17260;BME280;8746;49.230;9.220;2022-10-31T06:52:57;100433.41;;;7.77;100.00
17260;BME280;8746;49.230;9.220;2022-10-31T06:55:24;100432.53;;;7.79;100.00
17260;BME280;8746;49.230;9.220;2022-10-31T06:58:00;100442.94;;;7.82;100.00
17260;BME280;8746;49.230;9.220;2022-10-31T07:00:27;100451.53;;;7.91;100.00
17260;BME280;8746;49.230;9.220;2022-10-31T07:03:12;100437.38;;;7.98;100.00
17260;BME280;8746;49.230;9.220;2022-10-31T07:05:38;100433.84;;;7.99;100.00
17260;BME280;8746;49.230;9.220;2022-10-31T07:08:06;100438.97;;;8.05;100.00
17260;BME280;8746;49.230;9.220;2022-10-31T07:10:33;100431.81;;;8.12;100.00
17260;BME280;8746;49.230;9.220;2022-10-31T07:13:01;100436.16;;;8.13;100.00
17260;BME280;8746;49.230;9.220;2022-10-31T07:15:29;100438.63;;;8.21;100.00
17260;BME280;8746;49.230;9.220;2022-10-31T07:18:06;100437.69;;;8.23;100.00
17260;BME280;8746;49.230;9.220;2022-10-31T07:20:32;100434.81;;;8.34;100.00
17260;BME280;8746;49.230;9.220;2022-10-31T07:22:58;100448.59;;;8.45;100.00
17260;BME280;8746;49.230;9.220;2022-10-31T07:25:24;100436.13;;;8.54;100.00
17260;BME280;8746;49.230;9.220;2022-10-31T07:27:49;100436.88;;;8.60;100.00
17260;BME280;8746;49.230;9.220;2022-10-31T07:30:15;100437.31;;;8.78;100.00
17260;BME280;8746;49.230;9.220;2022-10-31T07:32:48;100442.16;;;8.95;100.00
17260;BME280;8746;49.230;9.220;2022-10-31T07:35:20;100438.63;;;8.96;100.00
17260;BME280;8746;49.230;9.220;2022-10-31T07:37:47;100439.94;;;9.12;100.00
17260;BME280;8746;49.230;9.220;2022-10-31T07:40:12;100436.41;;;9.13;100.00
17260;BME280;8746;49.230;9.220;2022-10-31T07:42:40;100437.19;;;9.17;100.00
17260;BME280;8746;49.230;9.220;2022-10-31T07:45:07;100442.28;;;9.23;100.00
17260;BME280;8746;49.230;9.220;2022-10-31T07:47:50;100430.75;;;9.29;100.00
17260;BME280;8746;49.230;9.220;2022-10-31T07:50:24;100441.44;;;9.23;100.00
17260;BME280;8746;49.230;9.220;2022-10-31T07:53:04;100441.34;;;9.26;100.00
17260;BME280;8746;49.230;9.220;2022-10-31T07:55:30;100439.25;;;9.39;100.00
17260;BME280;8746;49.230;9.220;2022-10-31T08:00:35;100433.41;;;9.59;100.00
17260;BME280;8746;49.230;9.220;2022-10-31T08:03:03;100435.06;;;9.63;100.00
17260;BME280;8746;49.230;9.220;2022-10-31T08:05:30;100436.81;;;9.62;100.00
17260;BME280;8746;49.230;9.220;2022-10-31T08:07:56;100431.31;;;9.72;100.00
17260;BME280;8746;49.230;9.220;2022-10-31T08:10:21;100430.41;;;9.73;100.00
17260;BME280;8746;49.230;9.220;2022-10-31T08:12:52;100427.78;;;9.71;100.00
17260;BME280;8746;49.230;9.220;2022-10-31T08:15:19;100430.03;;;9.85;100.00
17260;BME280;8746;49.230;9.220;2022-10-31T08:17:44;100421.13;;;9.89;100.00
17260;BME280;8746;49.230;9.220;2022-10-31T08:20:10;100424.22;;;10.04;100.00
17260;BME280;8746;49.230;9.220;2022-10-31T08:22:35;100425.25;;;9.98;100.00
17260;BME280;8746;49.230;9.220;2022-10-31T08:25:01;100429.47;;;10.04;100.00
17260;BME280;8746;49.230;9.220;2022-10-31T08:27:27;100426.59;;;10.11;100.00
17260;BME280;8746;49.230;9.220;2022-10-31T08:29:52;100420.03;;;10.25;100.00
17260;BME280;8746;49.230;9.220;2022-10-31T08:32:17;100426.78;;;10.35;100.00
17260;BME280;8746;49.230;9.220;2022-10-31T08:34:43;100422.88;;;10.49;100.00
17260;BME280;8746;49.230;9.220;2022-10-31T08:37:08;100420.22;;;10.49;100.00
17260;BME280;8746;49.230;9.220;2022-10-31T08:39:33;100418.91;;;10.62;100.00
17260;BME280;8746;49.230;9.220;2022-10-31T08:41:59;100419.41;;;10.73;100.00
17260;BME280;8746;49.230;9.220;2022-10-31T08:44:24;100410.81;;;10.94;100.00
17260;BME280;8746;49.230;9.220;2022-10-31T08:46:49;100420.59;;;10.92;100.00
17260;BME280;8746;49.230;9.220;2022-10-31T08:49:15;100409.53;;;11.05;100.00
17260;BME280;8746;49.230;9.220;2022-10-31T08:51:40;100405.31;;;11.25;99.99
17260;BME280;8746;49.230;9.220;2022-10-31T08:54:05;100410.50;;;11.28;99.63
17260;BME280;8746;49.230;9.220;2022-10-31T08:56:31;100406.97;;;11.29;100.00
17260;BME280;8746;49.230;9.220;2022-10-31T08:58:56;100401.91;;;11.23;100.00
17260;BME280;8746;49.230;9.220;2022-10-31T09:01:22;100398.09;;;11.30;100.00
17260;BME280;8746;49.230;9.220;2022-10-31T09:03:47;100398.50;;;11.19;99.65
17260;BME280;8746;49.230;9.220;2022-10-31T09:06:13;100394.81;;;11.49;99.66
17260;BME280;8746;49.230;9.220;2022-10-31T09:08:38;100395.97;;;11.40;99.66
17260;BME280;8746;49.230;9.220;2022-10-31T09:11:04;100391.97;;;11.53;99.49
17260;BME280;8746;49.230;9.220;2022-10-31T09:13:29;100384.34;;;11.46;100.00
17260;BME280;8746;49.230;9.220;2022-10-31T09:15:56;100377.88;;;11.77;99.48
17260;BME280;8746;49.230;9.220;2022-10-31T09:18:24;100379.75;;;11.98;99.14
17260;BME280;8746;49.230;9.220;2022-10-31T09:20:50;100374.88;;;12.10;98.55
17260;BME280;8746;49.230;9.220;2022-10-31T09:23:20;100372.94;;;12.15;97.30
17260;BME280;8746;49.230;9.220;2022-10-31T09:25:47;100366.59;;;12.19;98.14
17260;BME280;8746;49.230;9.220;2022-10-31T09:28:14;100374.34;;;12.46;97.93
17260;BME280;8746;49.230;9.220;2022-10-31T09:30:40;100378.75;;;12.68;94.97
17260;BME280;8746;49.230;9.220;2022-10-31T09:33:09;100370.53;;;12.74;94.83
17260;BME280;8746;49.230;9.220;2022-10-31T09:35:34;100364.78;;;12.85;95.44
17260;BME280;8746;49.230;9.220;2022-10-31T09:38:02;100363.56;;;13.12;93.01
17260;BME280;8746;49.230;9.220;2022-10-31T09:40:44;100365.63;;;13.26;92.82
17260;BME280;8746;49.230;9.220;2022-10-31T09:43:50;100358.59;;;13.25;92.36
17260;BME280;8746;49.230;9.220;2022-10-31T09:51:46;100358.88;;;13.97;89.71
17260;BME280;8746;49.230;9.220;2022-10-31T09:54:17;100352.72;;;13.97;89.55
17260;BME280;8746;49.230;9.220;2022-10-31T09:56:44;100349.53;;;14.44;87.46
17260;BME280;8746;49.230;9.220;2022-10-31T09:59:37;100357.31;;;14.66;85.35
17260;BME280;8746;49.230;9.220;2022-10-31T10:02:11;100354.56;;;14.68;84.77
17260;BME280;8746;49.230;9.220;2022-10-31T10:04:56;100355.34;;;15.05;84.76
17260;BME280;8746;49.230;9.220;2022-10-31T10:07:42;100335.56;;;15.60;83.10
17260;BME280;8746;49.230;9.220;2022-10-31T10:10:25;100342.91;;;15.89;82.12
17260;BME280;8746;49.230;9.220;2022-10-31T10:15:54;100344.69;;;15.72;80.58
17260;BME280;8746;49.230;9.220;2022-10-31T10:27:19;100342.00;;;16.66;77.84
17260;BME280;8746;49.230;9.220;2022-10-31T10:29:51;100332.78;;;16.87;77.31
17260;BME280;8746;49.230;9.220;2022-10-31T10:32:27;100336.00;;;16.63;76.67
17260;BME280;8746;49.230;9.220;2022-10-31T10:38:02;100332.75;;;16.58;75.75
17260;BME280;8746;49.230;9.220;2022-10-31T10:40:33;100323.34;;;16.36;77.59
17260;BME280;8746;49.230;9.220;2022-10-31T10:43:13;100317.81;;;16.25;79.63
17260;BME280;8746;49.230;9.220;2022-10-31T10:45:49;100314.66;;;16.02;80.63
17260;BME280;8746;49.230;9.220;2022-10-31T10:48:47;100313.81;;;16.01;79.75
17260;BME280;8746;49.230;9.220;2022-10-31T10:51:32;100317.88;;;15.43;81.77
17260;BME280;8746;49.230;9.220;2022-10-31T10:59:37;100303.91;;;15.55;82.74
17260;BME280;8746;49.230;9.220;2022-10-31T11:02:03;100301.03;;;15.43;83.91
17260;BME280;8746;49.230;9.220;2022-10-31T11:04:34;100293.06;;;15.43;82.63
17260;BME280;8746;49.230;9.220;2022-10-31T11:07:09;100292.66;;;15.50;82.88
17260;BME280;8746;49.230;9.220;2022-10-31T11:09:35;100282.19;;;15.63;84.11
17260;BME280;8746;49.230;9.220;2022-10-31T11:12:17;100290.34;;;15.44;82.97
17260;BME280;8746;49.230;9.220;2022-10-31T11:14:48;100281.00;;;15.37;83.94
17260;BME280;8746;49.230;9.220;2022-10-31T11:17:32;100285.09;;;15.43;84.74
17260;BME280;8746;49.230;9.220;2022-10-31T11:22:41;100261.69;;;15.49;84.50
17260;BME280;8746;49.230;9.220;2022-10-31T11:25:24;100256.28;;;15.51;83.59
17260;BME280;8746;49.230;9.220;2022-10-31T11:28:00;100248.75;;;15.59;84.04
17260;BME280;8746;49.230;9.220;2022-10-31T11:30:26;100248.06;;;15.55;83.97
17260;BME280;8746;49.230;9.220;2022-10-31T11:32:51;100249.19;;;15.51;83.78
17260;BME280;8746;49.230;9.220;2022-10-31T11:35:22;100235.19;;;15.32;84.14
17260;BME280;8746;49.230;9.220;2022-10-31T11:37:50;100231.91;;;15.43;85.08
17260;BME280;8746;49.230;9.220;2022-10-31T11:40:19;100233.91;;;15.39;84.75
17260;BME280;8746;49.230;9.220;2022-10-31T11:42:45;100224.38;;;15.35;86.87
17260;BME280;8746;49.230;9.220;2022-10-31T11:45:17;100224.63;;;15.46;85.84
17260;BME280;8746;49.230;9.220;2022-10-31T11:47:47;100220.09;;;15.48;85.98
17260;BME280;8746;49.230;9.220;2022-10-31T11:50:23;100214.19;;;15.43;86.89
17260;BME280;8746;49.230;9.220;2022-10-31T11:52:50;100214.09;;;15.29;86.39
17260;BME280;8746;49.230;9.220;2022-10-31T11:55:29;100215.28;;;15.23;87.85
17260;BME280;8746;49.230;9.220;2022-10-31T11:57:56;100213.16;;;15.46;87.41
17260;BME280;8746;49.230;9.220;2022-10-31T12:00:25;100201.75;;;15.44;86.71
17260;BME280;8746;49.230;9.220;2022-10-31T12:05:45;100197.03;;;15.65;87.77
17260;BME280;8746;49.230;9.220;2022-10-31T12:08:12;100194.34;;;15.65;86.72
17260;BME280;8746;49.230;9.220;2022-10-31T12:10:57;100187.69;;;15.58;86.16
17260;BME280;8746;49.230;9.220;2022-10-31T12:16:37;100177.19;;;15.70;86.10
17260;BME280;8746;49.230;9.220;2022-10-31T12:21:58;100172.25;;;15.95;85.18
17260;BME280;8746;49.230;9.220;2022-10-31T12:24:48;100170.75;;;15.91;86.95
17260;BME280;8746;49.230;9.220;2022-10-31T12:30:20;100159.78;;;16.11;85.43
17260;BME280;8746;49.230;9.220;2022-10-31T12:38:26;100161.75;;;16.08;85.90
17260;BME280;8746;49.230;9.220;2022-10-31T12:41:24;100154.16;;;16.16;85.64
17260;BME280;8746;49.230;9.220;2022-10-31T12:44:00;100148.75;;;16.32;84.99
17260;BME280;8746;49.230;9.220;2022-10-31T12:49:18;100134.69;;;16.30;84.69
17260;BME280;8746;49.230;9.220;2022-10-31T12:57:35;100123.78;;;16.34;83.38
17260;BME280;8746;49.230;9.220;2022-10-31T13:00:15;100123.56;;;16.38;84.26
17260;BME280;8746;49.230;9.220;2022-10-31T13:02:54;100116.50;;;16.22;85.39
17260;BME280;8746;49.230;9.220;2022-10-31T13:08:04;100106.38;;;16.43;84.90
17260;BME280;8746;49.230;9.220;2022-10-31T13:10:37;100101.09;;;16.56;84.85
17260;BME280;8746;49.230;9.220;2022-10-31T13:13:13;100114.53;;;16.55;84.73
17260;BME280;8746;49.230;9.220;2022-10-31T13:15:53;100109.19;;;16.55;83.87
17260;BME280;8746;49.230;9.220;2022-10-31T13:18:33;100097.03;;;16.50;84.37
17260;BME280;8746;49.230;9.220;2022-10-31T13:21:03;100094.44;;;16.49;84.23
17260;BME280;8746;49.230;9.220;2022-10-31T13:23:35;100097.59;;;16.41;84.35
17260;BME280;8746;49.230;9.220;2022-10-31T13:26:09;100100.81;;;16.46;84.29
17260;BME280;8746;49.230;9.220;2022-10-31T13:28:54;100091.13;;;16.60;84.82
17260;BME280;8746;49.230;9.220;2022-10-31T13:31:22;100077.91;;;16.44;85.86
17260;BME280;8746;49.230;9.220;2022-10-31T13:34:03;100068.69;;;16.49;86.20
17260;BME280;8746;49.230;9.220;2022-10-31T13:42:20;100052.16;;;16.44;87.71
17260;BME280;8746;49.230;9.220;2022-10-31T13:44:47;100056.94;;;16.25;87.66
17260;BME280;8746;49.230;9.220;2022-10-31T13:47:24;100048.72;;;16.28;87.87
17260;BME280;8746;49.230;9.220;2022-10-31T13:49:50;100041.50;;;16.15;88.15
17260;BME280;8746;49.230;9.220;2022-10-31T13:52:22;100042.28;;;16.17;88.99
17260;BME280;8746;49.230;9.220;2022-10-31T13:54:51;100047.00;;;16.12;88.96
17260;BME280;8746;49.230;9.220;2022-10-31T13:57:33;100030.09;;;16.13;89.49
17260;BME280;8746;49.230;9.220;2022-10-31T14:00:22;100022.22;;;16.12;89.33
17260;BME280;8746;49.230;9.220;2022-10-31T14:02:51;100019.66;;;16.10;89.25
17260;BME280;8746;49.230;9.220;2022-10-31T14:07:48;100030.81;;;16.59;88.26
17260;BME280;8746;49.230;9.220;2022-10-31T14:10:29;100041.28;;;16.62;87.33
17260;BME280;8746;49.230;9.220;2022-10-31T14:13:08;100039.53;;;16.75;87.36
17260;BME280;8746;49.230;9.220;2022-10-31T14:15:42;100036.66;;;16.78;86.04
17260;BME280;8746;49.230;9.220;2022-10-31T14:18:22;100043.13;;;16.89;85.08
17260;BME280;8746;49.230;9.220;2022-10-31T14:20:48;100047.13;;;16.81;85.62
17260;BME280;8746;49.230;9.220;2022-10-31T14:23:37;100047.50;;;16.90;85.04
17260;BME280;8746;49.230;9.220;2022-10-31T14:28:55;100037.38;;;17.09;84.62
17260;BME280;8746;49.230;9.220;2022-10-31T14:31:42;100032.03;;;17.09;84.38
17260;BME280;8746;49.230;9.220;2022-10-31T14:37:15;100032.19;;;17.21;83.63
17260;BME280;8746;49.230;9.220;2022-10-31T14:51:26;100029.91;;;16.02;90.38
17260;BME280;8746;49.230;9.220;2022-10-31T14:53:55;100022.41;;;15.94;91.52
17260;BME280;8746;49.230;9.220;2022-10-31T14:58:50;100013.19;;;15.85;92.36
17260;BME280;8746;49.230;9.220;2022-10-31T15:01:24;100008.06;;;15.82;92.29
17260;BME280;8746;49.230;9.220;2022-10-31T15:03:52;100010.16;;;15.92;91.83
17260;BME280;8746;49.230;9.220;2022-10-31T15:06:20;100009.41;;;15.90;91.42
17260;BME280;8746;49.230;9.220;2022-10-31T15:08:50;100019.13;;;15.75;92.40